createdAt,value
2022-11-14T00:01:18.234Z,102123.97
2022-11-14T00:03:44.531Z,102117.78
2022-11-14T00:06:11.685Z,102113.19
2022-11-14T00:08:37.959Z,102106.09
2022-11-14T00:11:04.315Z,102113.00
2022-11-14T00:13:30.612Z,102113.84
2022-11-14T00:15:56.946Z,102103.25
2022-11-14T00:18:23.561Z,102103.19
2022-11-14T00:20:51.013Z,102106.72
2022-11-14T00:23:17.817Z,102104.81
2022-11-14T00:25:44.858Z,102093.44
2022-11-14T00:28:12.023Z,102094.13
2022-11-14T00:30:38.364Z,102091.31
2022-11-14T00:33:04.901Z,102088.44
2022-11-14T00:35:31.229Z,102082.97
2022-11-14T00:37:57.489Z,102072.94
2022-11-14T00:40:23.773Z,102078.84
2022-11-14T00:42:50.125Z,102078.72
2022-11-14T00:45:16.458Z,102077.81
2022-11-14T00:47:42.751Z,102069.91
2022-11-14T00:50:09.698Z,102069.91
2022-11-14T00:52:36.024Z,102061.16
2022-11-14T00:55:02.391Z,102061.00
2022-11-14T00:57:28.719Z,102066.22
2022-11-14T00:59:55.697Z,102065.25
2022-11-14T01:02:22.274Z,102058.06
2022-11-14T01:04:48.571Z,102055.38
2022-11-14T01:07:15.194Z,102049.19
2022-11-14T01:09:41.482Z,102042.84
2022-11-14T01:12:07.766Z,102042.63
2022-11-14T01:14:34.058Z,102038.81
2022-11-14T01:17:00.344Z,102042.19
2022-11-14T01:19:26.642Z,102049.03
2022-11-14T01:21:52.926Z,102044.38
2022-11-14T01:24:19.206Z,102037.38
2022-11-14T01:26:45.488Z,102042.78
2022-11-14T01:29:11.763Z,102040.34
2022-11-14T01:31:38.053Z,102029.94
2022-11-14T01:34:04.529Z,102031.03
2022-11-14T01:36:30.836Z,102031.13
2022-11-14T01:38:57.183Z,102030.50
2022-11-14T01:41:23.502Z,102027.97
2022-11-14T01:43:49.895Z,102017.66
2022-11-14T01:46:19.462Z,102013.38
2022-11-14T01:48:49.931Z,102005.66
2022-11-14T01:51:34.305Z,102011.81
2022-11-14T01:54:02.589Z,101996.16
2022-11-14T01:56:33.871Z,101987.44
2022-11-14T01:59:11.335Z,101988.34
2022-11-14T02:01:40.998Z,101978.75
2022-11-14T02:04:08.858Z,101975.22
2022-11-14T02:06:38.234Z,101967.41
2022-11-14T02:09:06.111Z,101969.19
2022-11-14T02:11:34.799Z,101964.78
2022-11-14T02:14:01.348Z,101963.09
2022-11-14T02:16:27.820Z,101962.22
2022-11-14T02:18:54.131Z,101952.59
2022-11-14T02:21:20.442Z,101928.91
2022-11-14T02:23:46.718Z,101949.97
2022-11-14T02:26:13.050Z,101940.28
2022-11-14T02:28:39.404Z,101936.81
2022-11-14T02:31:05.719Z,101928.00
2022-11-14T02:33:32.010Z,101933.25
2022-11-14T02:35:58.304Z,101931.53
2022-11-14T02:38:24.608Z,101926.28
2022-11-14T02:40:51.003Z,101914.88
2022-11-14T02:43:17.299Z,101913.13
2022-11-14T02:45:43.685Z,101909.63
2022-11-14T02:48:10.098Z,101907.09
2022-11-14T02:50:36.406Z,101899.09
2022-11-14T02:53:02.703Z,101900.88
2022-11-14T02:55:28.998Z,101895.63
2022-11-14T02:57:55.295Z,101899.16
2022-11-14T03:00:21.698Z,101894.72
2022-11-14T03:02:47.977Z,101888.56
2022-11-14T03:05:14.296Z,101886.03
2022-11-14T03:07:40.629Z,101881.56
2022-11-14T03:10:07.729Z,101871.03
2022-11-14T03:12:34.120Z,101871.03
2022-11-14T03:15:00.416Z,101870.09
2022-11-14T03:17:26.772Z,101873.59
2022-11-14T03:19:53.065Z,101854.28
2022-11-14T03:22:19.336Z,101850.78
2022-11-14T03:24:45.660Z,101852.56
2022-11-14T03:27:11.977Z,101849.88
2022-11-14T03:29:38.280Z,101849.00
2022-11-14T03:32:04.736Z,101855.00
2022-11-14T03:34:31.040Z,101848.81
2022-11-14T03:36:57.407Z,101856.72
2022-11-14T03:39:23.702Z,101847.88
2022-11-14T03:41:49.963Z,101842.59
2022-11-14T03:44:16.287Z,101853.09
2022-11-14T03:46:42.644Z,101862.63
2022-11-14T03:49:08.995Z,101849.50
2022-11-14T03:51:35.553Z,101865.28
2022-11-14T03:54:01.859Z,101842.44
2022-11-14T03:56:28.263Z,101848.59
2022-11-14T03:58:54.546Z,101834.56
2022-11-14T04:01:20.868Z,101845.09
2022-11-14T04:03:47.194Z,101844.13
2022-11-14T04:06:13.597Z,101830.00
2022-11-14T04:08:40.543Z,101832.66
2022-11-14T04:11:07.233Z,101829.13
2022-11-14T04:13:33.515Z,101822.06
2022-11-14T04:16:00.017Z,101820.31
2022-11-14T04:18:26.701Z,101814.09
2022-11-14T04:20:53.170Z,101812.28
2022-11-14T04:23:19.757Z,101820.13
2022-11-14T04:25:46.409Z,101804.34
2022-11-14T04:28:13.164Z,101811.41
2022-11-14T04:30:39.788Z,101802.66
2022-11-14T04:33:06.071Z,101797.34
2022-11-14T04:35:32.387Z,101801.75
2022-11-14T04:37:58.673Z,101790.44
2022-11-14T04:40:24.953Z,101793.09
2022-11-14T04:42:51.259Z,101791.34
2022-11-14T04:45:17.599Z,101797.50
2022-11-14T04:47:43.905Z,101793.03
2022-11-14T04:50:10.485Z,101792.19
2022-11-14T04:52:36.965Z,101773.69
2022-11-14T04:55:03.395Z,101789.56
2022-11-14T04:57:29.691Z,101781.56
2022-11-14T04:59:56.002Z,101783.47
2022-11-14T05:02:22.295Z,101780.84
2022-11-14T05:04:48.738Z,101772.00
2022-11-14T05:07:15.477Z,101777.22
2022-11-14T05:09:41.948Z,101781.63
2022-11-14T05:12:08.239Z,101778.13
2022-11-14T05:14:34.543Z,101786.03
2022-11-14T05:17:00.819Z,101774.59
2022-11-14T05:19:27.106Z,101768.47
2022-11-14T05:21:53.456Z,101764.06
2022-11-14T05:24:19.876Z,101772.81
2022-11-14T05:26:46.152Z,101765.84
2022-11-14T05:29:12.448Z,101761.44
2022-11-14T05:31:38.742Z,101761.44
2022-11-14T05:34:05.061Z,101767.53
2022-11-14T05:36:31.553Z,101758.81
2022-11-14T05:38:57.984Z,101761.53
2022-11-14T05:41:24.267Z,101750.16
2022-11-14T05:43:50.524Z,101742.22
2022-11-14T05:46:17.042Z,101750.97
2022-11-14T05:48:43.429Z,101743.94
2022-11-14T05:51:11.346Z,101742.16
2022-11-14T05:53:37.762Z,101739.44
2022-11-14T05:56:05.596Z,101744.63
2022-11-14T05:58:33.059Z,101742.84
2022-11-14T06:01:06.583Z,101737.53
2022-11-14T06:03:34.394Z,101738.34
2022-11-14T06:06:04.897Z,101752.34
2022-11-14T06:08:32.041Z,101748.66
2022-11-14T06:11:02.115Z,101743.47
2022-11-14T06:13:28.406Z,101743.38
2022-11-14T06:15:58.222Z,101733.75
2022-11-14T06:18:24.578Z,101740.66
2022-11-14T06:20:50.885Z,101740.75
2022-11-14T06:23:21.977Z,101740.66
2022-11-14T06:25:50.832Z,101735.38
2022-11-14T06:28:17.134Z,101736.25
2022-11-14T06:30:43.495Z,101744.13
2022-11-14T06:33:09.810Z,101742.34
2022-11-14T06:35:37.034Z,101743.16
2022-11-14T06:38:03.473Z,101757.19
2022-11-14T06:40:29.793Z,101749.22
2022-11-14T06:42:56.671Z,101752.03
2022-11-14T06:45:23.156Z,101766.88
2022-11-14T06:47:49.442Z,101766.03
2022-11-14T06:50:15.807Z,101761.63
2022-11-14T06:52:42.076Z,101768.69
2022-11-14T06:55:08.494Z,101755.50
2022-11-14T06:57:34.873Z,101755.56
2022-11-14T07:00:01.558Z,101769.63
2022-11-14T07:02:27.943Z,101759.16
2022-11-14T07:04:54.663Z,101762.72
2022-11-14T07:07:21.019Z,101763.59
2022-11-14T07:09:47.341Z,101766.19
2022-11-14T07:12:13.696Z,101764.50
2022-11-14T07:14:40.094Z,101764.53
2022-11-14T07:17:06.368Z,101767.22
2022-11-14T07:19:32.684Z,101768.00
2022-11-14T07:21:59.061Z,101761.97
2022-11-14T07:24:25.455Z,101761.16
2022-11-14T07:26:51.828Z,101767.28
2022-11-14T07:29:18.172Z,101756.75
2022-11-14T07:31:44.456Z,101748.91
2022-11-14T07:34:11.216Z,101752.41
2022-11-14T07:36:37.512Z,101755.03
2022-11-14T07:39:03.866Z,101753.22
2022-11-14T07:41:30.314Z,101752.44
2022-11-14T07:43:57.111Z,101753.31
2022-11-14T07:46:23.541Z,101749.81
2022-11-14T07:48:49.823Z,101748.88
2022-11-14T07:51:17.433Z,101749.63
2022-11-14T07:53:44.128Z,101748.75
2022-11-14T07:56:10.800Z,101748.81
2022-11-14T07:58:37.811Z,101745.31
2022-11-14T08:01:04.802Z,101739.31
2022-11-14T08:03:31.451Z,101740.25
2022-11-14T08:06:16.266Z,101744.63
2022-11-14T08:08:42.619Z,101735.00
2022-11-14T08:11:09.007Z,101734.09
2022-11-14T08:13:35.525Z,101730.38
2022-11-14T08:16:12.739Z,101738.19
2022-11-14T08:18:39.868Z,101736.44
2022-11-14T08:21:06.276Z,101730.28
2022-11-14T08:23:32.781Z,101737.34
2022-11-14T08:26:01.383Z,101727.78
2022-11-14T08:28:28.228Z,101720.81
2022-11-14T08:30:58.853Z,101726.16
2022-11-14T08:33:25.138Z,101724.34
2022-11-14T08:35:51.416Z,101721.72
2022-11-14T08:38:17.707Z,101713.97
2022-11-14T08:40:43.998Z,101706.09
2022-11-14T08:43:11.651Z,101704.19
2022-11-14T08:45:37.934Z,101711.06
2022-11-14T08:48:04.369Z,101709.38
2022-11-14T08:50:31.479Z,101690.97
2022-11-14T08:52:57.877Z,101692.03
2022-11-14T08:55:24.235Z,101691.19
2022-11-14T08:57:52.914Z,101694.69
2022-11-14T09:00:19.358Z,101695.59
2022-11-14T09:02:45.823Z,101691.19
2022-11-14T09:05:12.269Z,101700.69
2022-11-14T09:07:38.909Z,101698.03
2022-11-14T09:10:05.900Z,101690.94
2022-11-14T09:12:32.287Z,101691.84
2022-11-14T09:14:58.597Z,101691.97
2022-11-14T09:17:24.941Z,101697.09
2022-11-14T09:19:51.293Z,101683.13
2022-11-14T09:22:17.707Z,101685.84
2022-11-14T09:24:46.956Z,101685.66
2022-11-14T09:27:13.926Z,101670.84
2022-11-14T09:29:40.288Z,101679.00
2022-11-14T09:32:06.588Z,101673.09
2022-11-14T09:34:33.419Z,101673.94
2022-11-14T09:36:59.688Z,101674.03
2022-11-14T09:39:25.978Z,101672.25
2022-11-14T09:42:02.719Z,101672.06
2022-11-14T09:44:35.597Z,101677.19
2022-11-14T09:47:07.579Z,101668.41
2022-11-14T09:49:44.555Z,101682.47
2022-11-14T09:52:29.539Z,101675.09
2022-11-14T09:54:57.094Z,101677.69
2022-11-14T09:57:23.544Z,101673.44
2022-11-14T09:59:49.940Z,101674.13
2022-11-14T10:02:16.240Z,101678.47
2022-11-14T10:05:02.068Z,101669.56
2022-11-14T10:07:28.459Z,101672.00
2022-11-14T10:10:03.362Z,101666.69
2022-11-14T10:12:29.635Z,101660.59
2022-11-14T10:14:55.900Z,101655.28
2022-11-14T10:17:41.038Z,101655.38
2022-11-14T10:20:16.385Z,101653.72
2022-11-14T10:22:48.659Z,101655.53
2022-11-14T10:25:18.029Z,101643.09
2022-11-14T10:28:05.505Z,101647.34
2022-11-14T10:30:50.040Z,101649.22
2022-11-14T10:33:22.969Z,101658.91
2022-11-14T10:35:59.338Z,101658.91
2022-11-14T10:38:30.016Z,101643.72
2022-11-14T10:41:01.778Z,101652.66
2022-11-14T10:43:39.922Z,101641.97
2022-11-14T10:46:27.433Z,101646.13
2022-11-14T10:48:59.885Z,101640.28
2022-11-14T10:51:33.112Z,101639.50
2022-11-14T10:54:11.427Z,101633.41
2022-11-14T10:56:47.704Z,101632.81
2022-11-14T10:59:14.003Z,101632.13
2022-11-14T11:01:44.943Z,101620.72
2022-11-14T11:04:13.057Z,101621.66
2022-11-14T11:06:39.463Z,101618.25
2022-11-14T11:09:31.298Z,101609.75
2022-11-14T11:11:59.319Z,101604.66
2022-11-14T11:14:25.698Z,101603.88
2022-11-14T11:17:07.657Z,101602.97
2022-11-14T11:19:33.954Z,101604.13
2022-11-14T11:22:00.273Z,101589.97
2022-11-14T11:24:34.464Z,101585.53
2022-11-14T11:27:20.333Z,101588.53
2022-11-14T11:29:46.655Z,101578.53
2022-11-14T11:32:24.094Z,101571.50
2022-11-14T11:34:51.142Z,101572.41
2022-11-14T11:37:46.478Z,101559.09
2022-11-14T11:40:19.377Z,101565.44
2022-11-14T11:45:36.430Z,101554.88
2022-11-14T11:48:14.858Z,101559.47
2022-11-14T11:50:41.680Z,101554.28
2022-11-14T11:53:16.016Z,101547.47
2022-11-14T11:55:47.100Z,101547.84
2022-11-14T11:58:19.664Z,101539.06
2022-11-14T12:00:46.191Z,101540.16
2022-11-14T12:03:19.819Z,101527.97
2022-11-14T12:05:46.394Z,101542.97
2022-11-14T12:08:21.089Z,101545.47
2022-11-14T12:10:48.233Z,101539.41
2022-11-14T12:13:27.493Z,101528.81
2022-11-14T12:16:13.069Z,101516.69
2022-11-14T12:18:43.672Z,101516.91
2022-11-14T12:21:12.491Z,101512.53
2022-11-14T12:23:47.627Z,101504.13
2022-11-14T12:26:32.811Z,101508.88
2022-11-14T12:29:05.370Z,101509.13
2022-11-14T12:31:35.582Z,101514.88
2022-11-14T12:34:05.511Z,101509.69
2022-11-14T12:36:33.458Z,101500.84
2022-11-14T12:39:00.535Z,101494.69
2022-11-14T12:41:28.339Z,101494.00
2022-11-14T12:44:14.633Z,101485.31
2022-11-14T12:47:13.323Z,101479.22
2022-11-14T12:49:48.935Z,101464.50
2022-11-14T12:52:33.949Z,101444.44
2022-11-14T12:55:00.574Z,101443.78
2022-11-14T12:57:49.994Z,101450.06
2022-11-14T13:00:17.094Z,101448.47
2022-11-14T13:03:01.984Z,101459.81
2022-11-14T13:05:40.486Z,101452.75
2022-11-14T13:08:18.390Z,101448.34
2022-11-14T13:10:44.876Z,101444.56
2022-11-14T13:13:33.656Z,101440.66
2022-11-14T13:16:20.196Z,101440.34
2022-11-14T13:19:13.416Z,101448.09
2022-11-14T13:21:59.712Z,101440.94
2022-11-14T13:24:25.999Z,101431.25
2022-11-14T13:26:53.825Z,101425.09
2022-11-14T13:29:38.574Z,101421.59
2022-11-14T13:32:09.417Z,101430.19
2022-11-14T13:34:58.904Z,101423.81
2022-11-14T13:37:43.922Z,101440.50
2022-11-14T13:40:16.624Z,101441.13
2022-11-14T13:42:48.821Z,101426.94
2022-11-14T13:45:18.136Z,101441.84
2022-11-14T13:47:53.674Z,101427.84
2022-11-14T13:50:29.904Z,101440.09
2022-11-14T13:52:56.830Z,101432.88
2022-11-14T13:55:29.097Z,101432.81
2022-11-14T13:58:04.119Z,101423.91
2022-11-14T14:00:42.811Z,101419.44
2022-11-14T14:03:18.106Z,101419.31
2022-11-14T14:06:11.791Z,101421.13
2022-11-14T14:08:40.822Z,101420.97
2022-11-14T14:11:07.237Z,101414.78
2022-11-14T14:13:40.425Z,101417.34
2022-11-14T14:16:07.131Z,101421.78
2022-11-14T14:18:44.374Z,101426.94
2022-11-14T14:21:24.600Z,101418.94
2022-11-14T14:24:03.218Z,101412.69
2022-11-14T14:26:47.588Z,101415.25
2022-11-14T14:29:13.871Z,101409.88
2022-11-14T14:31:41.602Z,101398.41
2022-11-14T14:34:21.597Z,101392.09
2022-11-14T14:36:55.344Z,101394.66
2022-11-14T14:39:23.047Z,101399.84
2022-11-14T14:41:49.890Z,101398.03
2022-11-14T14:44:23.197Z,101404.03
2022-11-14T14:46:49.807Z,101396.06
2022-11-14T14:49:21.263Z,101400.41
2022-11-14T14:51:47.666Z,101396.00
2022-11-14T14:54:20.661Z,101391.56
2022-11-14T14:56:54.252Z,101398.47
2022-11-14T14:59:23.211Z,101395.63
2022-11-14T15:01:49.725Z,101400.75
2022-11-14T15:04:17.702Z,101404.19
2022-11-14T15:06:45.852Z,101393.59
2022-11-14T15:09:18.342Z,101394.38
2022-11-14T15:11:46.286Z,101387.13
2022-11-14T15:14:13.935Z,101391.22
2022-11-14T15:16:40.664Z,101396.28
2022-11-14T15:19:12.099Z,101397.16
2022-11-14T15:21:38.498Z,101390.03
2022-11-14T15:24:18.509Z,101393.47
2022-11-14T15:26:45.753Z,101400.34
2022-11-14T15:29:17.658Z,101402.03
2022-11-14T15:31:46.212Z,101399.34
2022-11-14T15:34:31.884Z,101402.91
2022-11-14T15:37:09.253Z,101398.44
2022-11-14T15:39:36.141Z,101403.47
2022-11-14T15:42:31.923Z,101403.19
2022-11-14T15:44:58.252Z,101394.06
2022-11-14T15:47:26.102Z,101387.66
2022-11-14T15:49:56.836Z,101384.78
2022-11-14T15:52:25.821Z,101378.47
2022-11-14T15:54:52.161Z,101377.41
2022-11-14T15:57:18.513Z,101380.75
2022-11-14T15:59:44.969Z,101389.38
2022-11-14T16:02:31.893Z,101377.88
2022-11-14T16:04:59.376Z,101376.78
2022-11-14T16:07:25.825Z,101375.78
2022-11-14T16:09:52.251Z,101373.88
2022-11-14T16:12:18.852Z,101373.66
2022-11-14T16:14:45.188Z,101369.97
2022-11-14T16:17:15.360Z,101361.09
2022-11-14T16:19:41.840Z,101372.41
2022-11-14T16:22:17.240Z,101363.56
2022-11-14T16:24:43.523Z,101366.97
2022-11-14T16:27:09.957Z,101362.47
2022-11-14T16:29:36.267Z,101364.38
2022-11-14T16:32:03.539Z,101359.59
2022-11-14T16:34:29.907Z,101371.78
2022-11-14T16:37:00.521Z,101367.63
2022-11-14T16:39:26.903Z,101372.06
2022-11-14T16:41:53.279Z,101367.53
2022-11-14T16:44:19.641Z,101369.38
2022-11-14T16:46:46.413Z,101369.31
2022-11-14T16:49:13.825Z,101362.44
2022-11-14T16:51:49.073Z,101356.19
2022-11-14T16:54:16.689Z,101352.63
2022-11-14T16:56:43.512Z,101346.47
2022-11-14T16:59:10.434Z,101342.03
2022-11-14T17:01:37.512Z,101335.75
2022-11-14T17:04:04.431Z,101346.13
2022-11-14T17:06:31.004Z,101345.19
2022-11-14T17:08:58.407Z,101348.72
2022-11-14T17:11:25.339Z,101344.19
2022-11-14T17:13:51.647Z,101346.81
2022-11-14T17:16:18.258Z,101355.56
2022-11-14T17:18:44.555Z,101356.56
2022-11-14T17:21:11.741Z,101344.19
2022-11-14T17:23:38.027Z,101345.78
2022-11-14T17:26:05.449Z,101343.88
2022-11-14T17:28:33.287Z,101338.38
2022-11-14T17:31:00.145Z,101337.75
2022-11-14T17:33:26.433Z,101335.41
2022-11-14T17:35:52.826Z,101339.94
2022-11-14T17:38:19.110Z,101337.72
2022-11-14T17:40:45.973Z,101337.81
2022-11-14T17:43:14.181Z,101338.56
2022-11-14T17:45:41.359Z,101335.19
2022-11-14T17:48:07.785Z,101333.38
2022-11-14T17:50:37.973Z,101329.75
2022-11-14T17:53:04.289Z,101314.06
2022-11-14T17:55:30.570Z,101315.72
2022-11-14T17:57:56.880Z,101322.69
2022-11-14T18:00:23.200Z,101315.59
2022-11-14T18:02:49.472Z,101318.22
2022-11-14T18:05:16.587Z,101310.25
2022-11-14T18:07:43.097Z,101308.53
2022-11-14T18:10:09.562Z,101307.63
2022-11-14T18:12:35.903Z,101312.94
2022-11-14T18:15:02.280Z,101310.63
2022-11-14T18:17:28.645Z,101308.81
2022-11-14T18:19:56.715Z,101299.22
2022-11-14T18:22:23.076Z,101311.59
2022-11-14T18:24:49.369Z,101307.25
2022-11-14T18:27:15.655Z,101304.72
2022-11-14T18:29:41.940Z,101303.81
2022-11-14T18:32:08.391Z,101296.75
2022-11-14T18:34:36.931Z,101303.75
2022-11-14T18:37:04.107Z,101302.78
2022-11-14T18:39:30.681Z,101302.88
2022-11-14T18:41:57.538Z,101298.47
2022-11-14T18:44:24.736Z,101294.69
2022-11-14T18:46:51.024Z,101289.44
2022-11-14T18:49:17.333Z,101291.91
2022-11-14T18:51:43.818Z,101297.28
2022-11-14T18:54:14.638Z,101300.03
2022-11-14T18:56:41.138Z,101295.56
2022-11-14T18:59:10.042Z,101295.56
2022-11-14T19:01:36.381Z,101299.84
2022-11-14T19:04:04.566Z,101298.94
2022-11-14T19:06:36.938Z,101295.50
2022-11-14T19:09:11.749Z,101296.34
2022-11-14T19:11:56.923Z,101295.34
2022-11-14T19:14:23.563Z,101293.63
2022-11-14T19:16:50.111Z,101289.34
2022-11-14T19:19:16.526Z,101279.63
2022-11-14T19:21:43.099Z,101286.69
2022-11-14T19:24:09.629Z,101280.53
2022-11-14T19:26:36.031Z,101281.41
2022-11-14T19:29:05.793Z,101277.88
2022-11-14T19:31:33.156Z,101276.06
2022-11-14T19:33:59.936Z,101276.88
2022-11-14T19:36:57.667Z,101262.84
2022-11-14T19:39:13.777Z,101255.69
2022-11-14T19:41:40.746Z,101260.78
2022-11-14T19:44:07.078Z,101247.59
2022-11-14T19:46:35.608Z,101250.00
2022-11-14T19:49:02.735Z,101246.41
2022-11-14T19:51:29.234Z,101241.03
2022-11-14T19:53:56.939Z,101240.06
2022-11-14T19:56:23.359Z,101249.75
2022-11-14T19:58:50.767Z,101236.63
2022-11-14T20:01:18.945Z,101238.50
2022-11-14T20:03:49.656Z,101245.53
2022-11-14T20:06:26.925Z,101239.41
2022-11-14T20:08:53.783Z,101223.53
2022-11-14T20:11:20.819Z,101225.94
2022-11-14T20:13:47.153Z,101222.47
2022-11-14T20:16:17.728Z,101220.69
2022-11-14T20:18:55.974Z,101213.63
2022-11-14T20:21:25.594Z,101218.19
2022-11-14T20:23:52.035Z,101215.63
2022-11-14T20:26:18.658Z,101217.38
2022-11-14T20:28:46.350Z,101211.22
2022-11-14T20:31:17.090Z,101212.22
2022-11-14T20:33:44.894Z,101215.72
2022-11-14T20:36:12.649Z,101213.91
2022-11-14T20:38:38.987Z,101218.28
2022-11-14T20:41:05.404Z,101219.97
2022-11-14T20:43:32.194Z,101227.91
2022-11-14T20:45:59.846Z,101220.00
2022-11-14T20:48:26.692Z,101224.34
2022-11-14T20:50:53.370Z,101220.00
2022-11-14T20:53:19.744Z,101212.13
2022-11-14T20:55:51.657Z,101204.31
2022-11-14T20:58:18.076Z,101200.84
2022-11-14T21:00:44.385Z,101203.41
2022-11-14T21:03:10.689Z,101189.31
2022-11-14T21:05:40.117Z,101190.84
2022-11-14T21:08:06.425Z,101189.09
2022-11-14T21:10:45.496Z,101178.56
2022-11-14T21:13:31.374Z,101172.19
2022-11-14T21:15:58.374Z,101163.38
2022-11-14T21:18:24.959Z,101164.97
2022-11-14T21:20:57.740Z,101158.81
2022-11-14T21:23:24.029Z,101163.94
2022-11-14T21:25:50.340Z,101160.50
2022-11-14T21:28:16.626Z,101151.59
2022-11-14T21:30:43.083Z,101151.28
2022-11-14T21:33:09.394Z,101154.69
2022-11-14T21:35:35.901Z,101153.84
2022-11-14T21:38:02.170Z,101151.22
2022-11-14T21:40:28.455Z,101153.72
2022-11-14T21:42:55.102Z,101143.19
2022-11-14T21:45:21.538Z,101142.38
2022-11-14T21:47:47.874Z,101138.88
2022-11-14T21:50:14.258Z,101136.38
2022-11-14T21:52:40.533Z,101130.19
2022-11-14T21:55:07.061Z,101122.31
2022-11-14T21:57:33.362Z,101129.38
2022-11-14T21:59:59.632Z,101136.50
2022-11-14T22:02:44.479Z,101130.38
2022-11-14T22:05:10.767Z,101125.13
2022-11-14T22:07:40.015Z,101134.84
2022-11-14T22:10:06.535Z,101123.28
2022-11-14T22:12:35.194Z,101128.53
2022-11-14T22:15:01.935Z,101117.13
2022-11-14T22:17:28.420Z,101117.84
2022-11-14T22:19:54.712Z,101116.00
2022-11-14T22:22:21.062Z,101118.56
2022-11-14T22:24:47.375Z,101121.28
2022-11-14T22:27:13.714Z,101122.75
2022-11-14T22:29:40.006Z,101111.28
2022-11-14T22:32:06.309Z,101115.41
2022-11-14T22:34:32.667Z,101114.56
2022-11-14T22:36:58.929Z,101104.94
2022-11-14T22:39:25.356Z,101105.09
2022-11-14T22:41:51.666Z,101101.41
2022-11-14T22:44:17.955Z,101102.16
2022-11-14T22:46:44.283Z,101093.97
2022-11-14T22:49:10.556Z,101102.63
2022-11-14T22:51:36.915Z,101100.00
2022-11-14T22:54:03.264Z,101092.75
2022-11-14T22:56:29.748Z,101089.09
2022-11-14T22:58:56.536Z,101095.22
2022-11-14T23:01:24.431Z,101087.47
2022-11-14T23:04:08.864Z,101090.09
2022-11-14T23:06:35.427Z,101086.59
2022-11-14T23:09:02.166Z,101082.09
2022-11-14T23:11:29.797Z,101076.59
2022-11-14T23:13:57.575Z,101073.94
2022-11-14T23:16:25.065Z,101077.50
2022-11-14T23:18:53.241Z,101077.63
2022-11-14T23:21:20.954Z,101066.19
2022-11-14T23:23:52.113Z,101068.75
2022-11-14T23:26:18.689Z,101064.53
2022-11-14T23:28:45.751Z,101067.16
2022-11-14T23:31:12.189Z,101061.00
2022-11-14T23:33:38.498Z,101059.25
2022-11-14T23:36:04.977Z,101059.09
2022-11-14T23:38:31.270Z,101053.78
2022-11-14T23:40:59.022Z,101047.56
2022-11-14T23:43:25.681Z,101044.88
2022-11-14T23:45:52.092Z,101048.47
2022-11-14T23:48:19.276Z,101037.25
2022-11-14T23:50:49.090Z,101029.38
2022-11-14T23:53:15.387Z,101015.34
2022-11-14T23:55:42.068Z,101010.88
2022-11-14T23:58:08.526Z,101017.09
